Kingsville Naval Air Station
KNQI : now visible

Airfield :











YOU CAN JOIN US ON...

 
LOGIN :

Register | Disclaimer

   EN    FR    IT 

 









Legend :    VFR   Marginal VFR   IFR   Intensive IFR   Very Intensive IFR
Visi :
Ceiling :
>= 8 km
>= 3000ft
5 to 8 km
1000 to 3000 ft
1500m to 5 km
500 to 1000 ft
800 to 1500m
200 to 500 ft
< 800m
< 200 ft
Symbols :   Thunderstorms  Fog  Heavy snow  Heavy precipitations  Wind > 20 kt






- Airport Elevation : 50 ft


KNQI - Kingsville Naval Air Station

CURRENT METAR :
  • 241656Z 16006G15KT 10SM BKN024 BKN029 26/18 A3003 RMK AO2 SLP164 T02560183

EXPIRED METARs :
  • 241556Z 16007KT 10SM BKN020 OVC027 23/18 A3003 RMK AO2 SLP164 T02330183 $
  • 241456Z 11005KT 10SM OVC021 21/18 A3002 RMK AO2 SLP161 T02060178 53020 $

TAF TAF KNQI
Valid from the 24 at 15:00 until the 25 at 15:00 UTC


2415/2515 VRB06KT 9999 SCT012 OVC022 510102 QNH2999INS
TEMPO 2415/2418 17014G23KT SCT022 BKN035
BECMG 2418/2420 13013G19KT 9999 SCT035 SCT300 500000 QNH2991INS
TEMPO 2420/2422 16011KT BKN035 BKN300
BECMG 2502/2504 13007KT 9999 BKN014 OVC025 QNH3000INS
BECMG 2506/2508 VRB05KT 9000 BR BKN008 OVC012 QNH3001INS
TEMPO 2508/2514 4800 BR OVC004 T30/2420Z T17/2512Z
KZHU FIR / North America



MET'MAP, your aeronautical weather chart ! - Copyright ORBIFLY December 2007 - Disclaimer

ORBIFLY MET'MAP TEAM :

Programming & Development : Alexandra Zaïnal
Concept & original design : Baudouin d'Aumeries
Assistance for programming : Marc-Olivier Méhu
Technical & hardware support : Manuel Goepfert

Contact : metmap@orbifly.com




SOURCES & CREDITS :

   NOAA       Earth
Advisory